sensor_id;sensor_type;location;lat;lon;timestamp;temperature;humidity
39881;DHT22;25554;44.954;10.068;2022-10-29T00:00:26;13.10;99.90
39881;DHT22;25554;44.954;10.068;2022-10-29T00:05:19;12.90;99.90
39881;DHT22;25554;44.954;10.068;2022-10-29T00:10:12;12.60;99.90
39881;DHT22;25554;44.954;10.068;2022-10-29T00:15:04;12.60;99.90
39881;DHT22;25554;44.954;10.068;2022-10-29T00:19:57;12.70;99.90
39881;DHT22;25554;44.954;10.068;2022-10-29T00:24:50;12.70;99.90
39881;DHT22;25554;44.954;10.068;2022-10-29T00:29:42;12.70;99.90
39881;DHT22;25554;44.954;10.068;2022-10-29T00:34:35;12.60;99.90
39881;DHT22;25554;44.954;10.068;2022-10-29T00:37:05;12.80;99.90
39881;DHT22;25554;44.954;10.068;2022-10-29T00:42:00;12.70;99.90
39881;DHT22;25554;44.954;10.068;2022-10-29T00:44:28;12.70;99.90
39881;DHT22;25554;44.954;10.068;2022-10-29T00:49:50;12.80;99.90
39881;DHT22;25554;44.954;10.068;2022-10-29T00:52:18;12.70;99.90
39881;DHT22;25554;44.954;10.068;2022-10-29T00:54:47;12.70;99.90
39881;DHT22;25554;44.954;10.068;2022-10-29T00:57:24;12.70;99.90
39881;DHT22;25554;44.954;10.068;2022-10-29T01:02:19;12.70;99.90
39881;DHT22;25554;44.954;10.068;2022-10-29T01:07:12;12.60;99.90
39881;DHT22;25554;44.954;10.068;2022-10-29T01:12:31;12.50;99.90
39881;DHT22;25554;44.954;10.068;2022-10-29T01:32:12;12.30;99.90
39881;DHT22;25554;44.954;10.068;2022-10-29T01:34:54;12.20;99.90
39881;DHT22;25554;44.954;10.068;2022-10-29T01:37:38;12.00;99.90
39881;DHT22;25554;44.954;10.068;2022-10-29T01:43:19;12.30;99.90
39881;DHT22;25554;44.954;10.068;2022-10-29T01:45:53;12.30;99.90
39881;DHT22;25554;44.954;10.068;2022-10-29T01:48:42;12.30;99.90
39881;DHT22;25554;44.954;10.068;2022-10-29T01:51:19;12.40;99.90
39881;DHT22;25554;44.954;10.068;2022-10-29T01:53:46;12.50;99.90
39881;DHT22;25554;44.954;10.068;2022-10-29T01:58:41;12.50;99.90
39881;DHT22;25554;44.954;10.068;2022-10-29T02:12:16;12.30;99.90
39881;DHT22;25554;44.954;10.068;2022-10-29T02:14:50;12.30;99.90
39881;DHT22;25554;44.954;10.068;2022-10-29T02:17:17;12.20;99.90
39881;DHT22;25554;44.954;10.068;2022-10-29T02:24:37;12.10;99.90
39881;DHT22;25554;44.954;10.068;2022-10-29T02:29:29;12.20;99.90
39881;DHT22;25554;44.954;10.068;2022-10-29T02:34:22;12.20;99.90
39881;DHT22;25554;44.954;10.068;2022-10-29T02:39:14;12.30;99.90
39881;DHT22;25554;44.954;10.068;2022-10-29T02:44:07;12.20;99.90
39881;DHT22;25554;44.954;10.068;2022-10-29T02:49:05;12.20;99.90
39881;DHT22;25554;44.954;10.068;2022-10-29T02:53:58;12.20;99.90
39881;DHT22;25554;44.954;10.068;2022-10-29T02:58:50;12.20;99.90
39881;DHT22;25554;44.954;10.068;2022-10-29T03:06:15;12.30;99.90
39881;DHT22;25554;44.954;10.068;2022-10-29T03:11:09;12.30;99.90
39881;DHT22;25554;44.954;10.068;2022-10-29T03:16:02;12.30;99.90
39881;DHT22;25554;44.954;10.068;2022-10-29T03:20:55;12.40;99.90
39881;DHT22;25554;44.954;10.068;2022-10-29T03:25:51;12.40;99.90
39881;DHT22;25554;44.954;10.068;2022-10-29T03:28:22;12.30;99.90
39881;DHT22;25554;44.954;10.068;2022-10-29T03:33:15;12.40;99.90
39881;DHT22;25554;44.954;10.068;2022-10-29T03:38:08;12.30;99.90
39881;DHT22;25554;44.954;10.068;2022-10-29T03:43:00;12.30;99.90
39881;DHT22;25554;44.954;10.068;2022-10-29T03:47:53;12.10;99.90
39881;DHT22;25554;44.954;10.068;2022-10-29T03:52:45;12.10;99.90
39881;DHT22;25554;44.954;10.068;2022-10-29T03:57:38;12.00;99.90
39881;DHT22;25554;44.954;10.068;2022-10-29T04:00:05;12.00;99.90
39881;DHT22;25554;44.954;10.068;2022-10-29T04:12:25;11.90;99.90
39881;DHT22;25554;44.954;10.068;2022-10-29T04:17:17;11.90;99.90
39881;DHT22;25554;44.954;10.068;2022-10-29T04:22:10;11.80;99.90
39881;DHT22;25554;44.954;10.068;2022-10-29T04:27:03;11.80;99.90
39881;DHT22;25554;44.954;10.068;2022-10-29T04:31:55;11.80;99.90
39881;DHT22;25554;44.954;10.068;2022-10-29T04:36:48;11.70;99.90
39881;DHT22;25554;44.954;10.068;2022-10-29T04:39:16;11.70;99.90
39881;DHT22;25554;44.954;10.068;2022-10-29T04:44:09;11.60;99.90
39881;DHT22;25554;44.954;10.068;2022-10-29T04:49:01;11.70;99.90
39881;DHT22;25554;44.954;10.068;2022-10-29T04:53:54;11.80;99.90
39881;DHT22;25554;44.954;10.068;2022-10-29T04:58:49;9.50;99.90
39881;DHT22;25554;44.954;10.068;2022-10-29T05:03:41;11.50;99.90
39881;DHT22;25554;44.954;10.068;2022-10-29T05:11:02;11.40;99.90
39881;DHT22;25554;44.954;10.068;2022-10-29T05:15:54;11.50;99.90
39881;DHT22;25554;44.954;10.068;2022-10-29T05:20:47;11.40;99.90
39881;DHT22;25554;44.954;10.068;2022-10-29T05:28:14;11.40;99.90
39881;DHT22;25554;44.954;10.068;2022-10-29T05:33:16;11.40;99.90
39881;DHT22;25554;44.954;10.068;2022-10-29T05:35:42;11.40;99.90
39881;DHT22;25554;44.954;10.068;2022-10-29T05:38:10;11.40;99.90
39881;DHT22;25554;44.954;10.068;2022-10-29T05:45:30;11.40;99.90
39881;DHT22;25554;44.954;10.068;2022-10-29T05:47:57;10.90;99.90
39881;DHT22;25554;44.954;10.068;2022-10-29T05:53:04;11.50;99.90
39881;DHT22;25554;44.954;10.068;2022-10-29T05:55:32;11.50;99.90
39881;DHT22;25554;44.954;10.068;2022-10-29T05:58:00;11.40;99.90
39881;DHT22;25554;44.954;10.068;2022-10-29T06:00:29;11.40;99.90
39881;DHT22;25554;44.954;10.068;2022-10-29T06:07:52;11.40;99.90
39881;DHT22;25554;44.954;10.068;2022-10-29T06:12:44;11.30;99.90
39881;DHT22;25554;44.954;10.068;2022-10-29T06:17:40;11.30;99.90
39881;DHT22;25554;44.954;10.068;2022-10-29T06:20:08;11.50;99.90
39881;DHT22;25554;44.954;10.068;2022-10-29T06:25:02;11.50;99.90
39881;DHT22;25554;44.954;10.068;2022-10-29T06:29:55;11.60;99.90
39881;DHT22;25554;44.954;10.068;2022-10-29T06:34:48;11.70;99.90
39881;DHT22;25554;44.954;10.068;2022-10-29T06:39:41;11.80;99.90
39881;DHT22;25554;44.954;10.068;2022-10-29T06:47:00;12.00;99.90
39881;DHT22;25554;44.954;10.068;2022-10-29T06:54:19;11.50;99.90
39881;DHT22;25554;44.954;10.068;2022-10-29T06:59:12;12.50;99.90
39881;DHT22;25554;44.954;10.068;2022-10-29T07:04:05;12.60;99.90
39881;DHT22;25554;44.954;10.068;2022-10-29T07:06:32;12.70;99.90
39881;DHT22;25554;44.954;10.068;2022-10-29T07:11:27;12.80;99.90
39881;DHT22;25554;44.954;10.068;2022-10-29T07:23:40;13.30;99.90
39881;DHT22;25554;44.954;10.068;2022-10-29T07:28:32;13.60;99.90
39881;DHT22;25554;44.954;10.068;2022-10-29T07:30:59;13.80;99.90
39881;DHT22;25554;44.954;10.068;2022-10-29T07:33:29;13.90;99.90
39881;DHT22;25554;44.954;10.068;2022-10-29T07:35:57;14.00;99.90
39881;DHT22;25554;44.954;10.068;2022-10-29T07:40:51;14.40;99.90
39881;DHT22;25554;44.954;10.068;2022-10-29T07:43:18;14.50;99.90
39881;DHT22;25554;44.954;10.068;2022-10-29T07:45:46;14.60;99.90
39881;DHT22;25554;44.954;10.068;2022-10-29T07:48:15;14.70;99.90
39881;DHT22;25554;44.954;10.068;2022-10-29T07:53:08;14.70;99.90
39881;DHT22;25554;44.954;10.068;2022-10-29T07:58:06;14.90;99.90
39881;DHT22;25554;44.954;10.068;2022-10-29T08:00:36;14.90;99.90
39881;DHT22;25554;44.954;10.068;2022-10-29T08:03:04;15.00;99.90
39881;DHT22;25554;44.954;10.068;2022-10-29T08:05:31;15.10;99.90
39881;DHT22;25554;44.954;10.068;2022-10-29T08:10:25;15.20;99.90
39881;DHT22;25554;44.954;10.068;2022-10-29T08:12:53;15.30;99.90
39881;DHT22;25554;44.954;10.068;2022-10-29T08:20:13;15.70;99.90
39881;DHT22;25554;44.954;10.068;2022-10-29T08:25:06;15.60;99.90
39881;DHT22;25554;44.954;10.068;2022-10-29T08:29:59;15.80;99.90
39881;DHT22;25554;44.954;10.068;2022-10-29T08:34:51;15.90;99.90
39881;DHT22;25554;44.954;10.068;2022-10-29T08:47:20;16.20;99.90
39881;DHT22;25554;44.954;10.068;2022-10-29T08:50:09;16.30;99.90
39881;DHT22;25554;44.954;10.068;2022-10-29T08:52:37;16.50;99.90
39881;DHT22;25554;44.954;10.068;2022-10-29T08:55:11;16.50;99.90
39881;DHT22;25554;44.954;10.068;2022-10-29T08:57:48;16.60;99.90
39881;DHT22;25554;44.954;10.068;2022-10-29T09:00:19;16.60;99.90
39881;DHT22;25554;44.954;10.068;2022-10-29T09:05:15;16.70;99.90
39881;DHT22;25554;44.954;10.068;2022-10-29T09:16:14;17.20;99.90
39881;DHT22;25554;44.954;10.068;2022-10-29T09:26:25;17.60;99.90
39881;DHT22;25554;44.954;10.068;2022-10-29T09:31:48;17.80;99.90
39881;DHT22;25554;44.954;10.068;2022-10-29T09:34:50;17.90;99.90
39881;DHT22;25554;44.954;10.068;2022-10-29T09:37:17;18.00;99.90
39881;DHT22;25554;44.954;10.068;2022-10-29T09:39:46;18.10;99.90
39881;DHT22;25554;44.954;10.068;2022-10-29T09:42:37;18.20;99.90
39881;DHT22;25554;44.954;10.068;2022-10-29T09:45:06;18.30;99.90
39881;DHT22;25554;44.954;10.068;2022-10-29T09:52:36;18.50;99.90
39881;DHT22;25554;44.954;10.068;2022-10-29T09:55:05;18.60;99.90
39881;DHT22;25554;44.954;10.068;2022-10-29T09:57:34;18.70;99.90
39881;DHT22;25554;44.954;10.068;2022-10-29T10:00:17;18.80;99.90
39881;DHT22;25554;44.954;10.068;2022-10-29T10:05:34;19.00;99.90
39881;DHT22;25554;44.954;10.068;2022-10-29T10:08:06;19.10;99.90
39881;DHT22;25554;44.954;10.068;2022-10-29T10:10:36;19.10;99.90
39881;DHT22;25554;44.954;10.068;2022-10-29T10:13:05;19.20;99.90
39881;DHT22;25554;44.954;10.068;2022-10-29T10:15:33;19.40;99.90
39881;DHT22;25554;44.954;10.068;2022-10-29T10:20:40;19.20;99.90
39881;DHT22;25554;44.954;10.068;2022-10-29T10:23:25;19.60;99.90
39881;DHT22;25554;44.954;10.068;2022-10-29T10:25:54;19.70;99.90
39881;DHT22;25554;44.954;10.068;2022-10-29T10:28:24;19.80;99.90
39881;DHT22;25554;44.954;10.068;2022-10-29T10:33:33;20.00;99.90
39881;DHT22;25554;44.954;10.068;2022-10-29T10:36:07;20.00;99.90
39881;DHT22;25554;44.954;10.068;2022-10-29T10:38:42;20.00;99.90
39881;DHT22;25554;44.954;10.068;2022-10-29T10:41:10;20.10;99.90
39881;DHT22;25554;44.954;10.068;2022-10-29T10:43:44;20.10;99.90
39881;DHT22;25554;44.954;10.068;2022-10-29T10:46:23;20.20;99.90
39881;DHT22;25554;44.954;10.068;2022-10-29T10:51:38;20.30;99.90
39881;DHT22;25554;44.954;10.068;2022-10-29T11:05:32;20.80;99.90
39881;DHT22;25554;44.954;10.068;2022-10-29T11:08:04;20.90;99.90
39881;DHT22;25554;44.954;10.068;2022-10-29T11:10:57;21.00;99.90
39881;DHT22;25554;44.954;10.068;2022-10-29T11:13:31;20.90;99.90
39881;DHT22;25554;44.954;10.068;2022-10-29T11:16:17;21.20;99.90
39881;DHT22;25554;44.954;10.068;2022-10-29T11:24:33;21.40;99.90
39881;DHT22;25554;44.954;10.068;2022-10-29T11:27:16;21.50;99.90
39881;DHT22;25554;44.954;10.068;2022-10-29T11:37:59;21.80;99.90
39881;DHT22;25554;44.954;10.068;2022-10-29T11:40:22;21.80;99.90
39881;DHT22;25554;44.954;10.068;2022-10-29T11:51:53;21.60;99.90
39881;DHT22;25554;44.954;10.068;2022-10-29T11:56:58;22.20;99.90
39881;DHT22;25554;44.954;10.068;2022-10-29T11:59:54;22.40;99.90
39881;DHT22;25554;44.954;10.068;2022-10-29T12:15:41;22.60;99.90
39881;DHT22;25554;44.954;10.068;2022-10-29T12:18:32;22.70;99.90
39881;DHT22;25554;44.954;10.068;2022-10-29T12:29:13;22.90;99.90
39881;DHT22;25554;44.954;10.068;2022-10-29T12:39:36;23.10;99.90
39881;DHT22;25554;44.954;10.068;2022-10-29T12:42:14;23.20;99.90
39881;DHT22;25554;44.954;10.068;2022-10-29T12:55:35;23.60;99.90
39881;DHT22;25554;44.954;10.068;2022-10-29T13:03:57;23.70;99.90
39881;DHT22;25554;44.954;10.068;2022-10-29T13:09:22;23.70;99.90
39881;DHT22;25554;44.954;10.068;2022-10-29T13:14:33;23.80;99.90
39881;DHT22;25554;44.954;10.068;2022-10-29T13:17:03;24.00;99.90
39881;DHT22;25554;44.954;10.068;2022-10-29T13:19:58;24.00;99.90
39881;DHT22;25554;44.954;10.068;2022-10-29T13:30:37;24.10;99.90
39881;DHT22;25554;44.954;10.068;2022-10-29T13:35:59;24.20;99.90
39881;DHT22;25554;44.954;10.068;2022-10-29T13:38:39;24.20;99.90
39881;DHT22;25554;44.954;10.068;2022-10-29T13:41:19;24.20;99.90
39881;DHT22;25554;44.954;10.068;2022-10-29T13:44:12;24.30;99.90
39881;DHT22;25554;44.954;10.068;2022-10-29T13:49:30;24.30;99.90
39881;DHT22;25554;44.954;10.068;2022-10-29T13:57:04;24.40;99.90
39881;DHT22;25554;44.954;10.068;2022-10-29T14:00:34;24.40;99.90
39881;DHT22;25554;44.954;10.068;2022-10-29T14:02:53;24.30;99.90
39881;DHT22;25554;44.954;10.068;2022-10-29T14:05:33;24.30;99.90
39881;DHT22;25554;44.954;10.068;2022-10-29T14:18:42;24.60;99.90
39881;DHT22;25554;44.954;10.068;2022-10-29T14:21:24;24.30;99.90
39881;DHT22;25554;44.954;10.068;2022-10-29T14:24:01;25.80;99.90
39881;DHT22;25554;44.954;10.068;2022-10-29T14:26:30;24.50;99.90
39881;DHT22;25554;44.954;10.068;2022-10-29T14:29:21;24.50;99.90
39881;DHT22;25554;44.954;10.068;2022-10-29T14:39:47;24.30;99.90
39881;DHT22;25554;44.954;10.068;2022-10-29T14:42:24;24.20;99.90
39881;DHT22;25554;44.954;10.068;2022-10-29T14:44:54;24.20;99.90
39881;DHT22;25554;44.954;10.068;2022-10-29T14:47:26;24.10;99.90
39881;DHT22;25554;44.954;10.068;2022-10-29T14:49:54;24.10;99.90
39881;DHT22;25554;44.954;10.068;2022-10-29T14:52:48;24.10;99.90
39881;DHT22;25554;44.954;10.068;2022-10-29T14:55:26;23.90;99.90
39881;DHT22;25554;44.954;10.068;2022-10-29T14:58:03;23.90;99.90
39881;DHT22;25554;44.954;10.068;2022-10-29T15:00:30;23.90;99.90
39881;DHT22;25554;44.954;10.068;2022-10-29T15:10:25;23.40;99.90
39881;DHT22;25554;44.954;10.068;2022-10-29T15:12:52;23.30;99.90
39881;DHT22;25554;44.954;10.068;2022-10-29T15:15:24;23.20;99.90
39881;DHT22;25554;44.954;10.068;2022-10-29T15:20:35;23.00;99.90
39881;DHT22;25554;44.954;10.068;2022-10-29T15:23:03;22.90;99.90
39881;DHT22;25554;44.954;10.068;2022-10-29T15:25:37;22.80;99.90
39881;DHT22;25554;44.954;10.068;2022-10-29T15:28:20;22.70;99.90
39881;DHT22;25554;44.954;10.068;2022-10-29T15:33:17;22.50;99.90
39881;DHT22;25554;44.954;10.068;2022-10-29T15:35:51;22.30;99.90
39881;DHT22;25554;44.954;10.068;2022-10-29T15:38:58;22.20;99.90
39881;DHT22;25554;44.954;10.068;2022-10-29T15:41:36;22.00;99.90
39881;DHT22;25554;44.954;10.068;2022-10-29T15:46:47;21.70;99.90
39881;DHT22;25554;44.954;10.068;2022-10-29T15:49:14;21.50;99.90
39881;DHT22;25554;44.954;10.068;2022-10-29T15:54:10;21.30;99.90
39881;DHT22;25554;44.954;10.068;2022-10-29T15:59:11;21.00;99.90
39881;DHT22;25554;44.954;10.068;2022-10-29T16:16:21;20.30;99.90
39881;DHT22;25554;44.954;10.068;2022-10-29T16:21:21;20.00;99.90
39881;DHT22;25554;44.954;10.068;2022-10-29T16:23:48;19.60;99.90
39881;DHT22;25554;44.954;10.068;2022-10-29T16:26:18;19.90;99.90
39881;DHT22;25554;44.954;10.068;2022-10-29T16:31:18;19.70;99.90
39881;DHT22;25554;44.954;10.068;2022-10-29T16:33:46;19.70;99.90
39881;DHT22;25554;44.954;10.068;2022-10-29T16:45:59;19.30;99.90
39881;DHT22;25554;44.954;10.068;2022-10-29T16:50:51;19.10;99.90
39881;DHT22;25554;44.954;10.068;2022-10-29T16:58:12;18.80;99.90
39881;DHT22;25554;44.954;10.068;2022-10-29T17:05:37;18.70;99.90
39881;DHT22;25554;44.954;10.068;2022-10-29T17:12:57;18.50;99.90
39881;DHT22;25554;44.954;10.068;2022-10-29T17:20:17;18.20;99.90
39881;DHT22;25554;44.954;10.068;2022-10-29T17:25:09;18.10;99.90
39881;DHT22;25554;44.954;10.068;2022-10-29T17:27:40;17.90;99.90
39881;DHT22;25554;44.954;10.068;2022-10-29T17:30:07;17.90;99.90
39881;DHT22;25554;44.954;10.068;2022-10-29T17:35:01;17.80;99.90
39881;DHT22;25554;44.954;10.068;2022-10-29T17:42:20;17.50;99.90
39881;DHT22;25554;44.954;10.068;2022-10-29T17:47:13;17.50;99.90
39881;DHT22;25554;44.954;10.068;2022-10-29T17:54:33;17.50;99.90
39881;DHT22;25554;44.954;10.068;2022-10-29T17:59:25;17.40;99.90
39881;DHT22;25554;44.954;10.068;2022-10-29T18:04:18;17.50;99.90
39881;DHT22;25554;44.954;10.068;2022-10-29T18:16:31;17.40;99.90
39881;DHT22;25554;44.954;10.068;2022-10-29T18:26:28;17.20;99.90
39881;DHT22;25554;44.954;10.068;2022-10-29T18:28:58;17.20;99.90
39881;DHT22;25554;44.954;10.068;2022-10-29T18:31:27;17.10;99.90
39881;DHT22;25554;44.954;10.068;2022-10-29T18:33:57;17.00;99.90
39881;DHT22;25554;44.954;10.068;2022-10-29T18:38:52;16.90;99.90
39881;DHT22;25554;44.954;10.068;2022-10-29T18:48:43;16.60;99.90
39881;DHT22;25554;44.954;10.068;2022-10-29T18:56:14;16.60;99.90
39881;DHT22;25554;44.954;10.068;2022-10-29T18:58:42;16.50;99.90
39881;DHT22;25554;44.954;10.068;2022-10-29T19:03:35;16.50;99.90
39881;DHT22;25554;44.954;10.068;2022-10-29T19:06:07;16.40;99.90
39881;DHT22;25554;44.954;10.068;2022-10-29T19:08:38;16.40;99.90
39881;DHT22;25554;44.954;10.068;2022-10-29T19:11:08;16.30;99.90
39881;DHT22;25554;44.954;10.068;2022-10-29T19:16:10;16.30;99.90
39881;DHT22;25554;44.954;10.068;2022-10-29T19:18:38;16.20;99.90
39881;DHT22;25554;44.954;10.068;2022-10-29T19:23:32;15.80;99.90
39881;DHT22;25554;44.954;10.068;2022-10-29T19:26:07;16.10;99.90
39881;DHT22;25554;44.954;10.068;2022-10-29T19:38:24;16.00;99.90
39881;DHT22;25554;44.954;10.068;2022-10-29T19:45:44;15.90;99.90
39881;DHT22;25554;44.954;10.068;2022-10-29T19:50:37;15.90;99.90
39881;DHT22;25554;44.954;10.068;2022-10-29T20:00:23;15.70;99.90
39881;DHT22;25554;44.954;10.068;2022-10-29T20:02:52;15.60;99.90
39881;DHT22;25554;44.954;10.068;2022-10-29T20:07:46;15.60;99.90
39881;DHT22;25554;44.954;10.068;2022-10-29T20:10:15;15.60;99.90
39881;DHT22;25554;44.954;10.068;2022-10-29T20:20:12;15.50;99.90
39881;DHT22;25554;44.954;10.068;2022-10-29T20:34:53;18.20;99.90
39881;DHT22;25554;44.954;10.068;2022-10-29T20:39:46;15.40;99.90
39881;DHT22;25554;44.954;10.068;2022-10-29T20:42:12;15.40;99.90
39881;DHT22;25554;44.954;10.068;2022-10-29T20:51:58;15.40;99.90
39881;DHT22;25554;44.954;10.068;2022-10-29T20:56:51;15.50;99.90
39881;DHT22;25554;44.954;10.068;2022-10-29T21:01:44;15.30;99.90
39881;DHT22;25554;44.954;10.068;2022-10-29T21:06:37;15.20;99.90
39881;DHT22;25554;44.954;10.068;2022-10-29T21:16:23;14.80;99.90
39881;DHT22;25554;44.954;10.068;2022-10-29T21:18:57;14.70;99.90
39881;DHT22;25554;44.954;10.068;2022-10-29T21:21:25;14.70;99.90
39881;DHT22;25554;44.954;10.068;2022-10-29T21:26:19;14.70;99.90
39881;DHT22;25554;44.954;10.068;2022-10-29T21:28:46;14.60;99.90
39881;DHT22;25554;44.954;10.068;2022-10-29T21:33:39;14.60;99.90
39881;DHT22;25554;44.954;10.068;2022-10-29T21:45:55;14.30;99.90
39881;DHT22;25554;44.954;10.068;2022-10-29T21:48:24;14.30;99.90
39881;DHT22;25554;44.954;10.068;2022-10-29T21:51:03;14.30;99.90
39881;DHT22;25554;44.954;10.068;2022-10-29T21:55:57;14.30;99.90
39881;DHT22;25554;44.954;10.068;2022-10-29T22:08:10;14.10;99.90
39881;DHT22;25554;44.954;10.068;2022-10-29T22:13:02;14.10;99.90
39881;DHT22;25554;44.954;10.068;2022-10-29T22:20:21;14.00;99.90
39881;DHT22;25554;44.954;10.068;2022-10-29T22:27:41;13.90;99.90
39881;DHT22;25554;44.954;10.068;2022-10-29T22:35:02;14.00;99.90
39881;DHT22;25554;44.954;10.068;2022-10-29T22:39:54;13.70;99.90
39881;DHT22;25554;44.954;10.068;2022-10-29T22:44:47;13.60;99.90
39881;DHT22;25554;44.954;10.068;2022-10-29T22:49:40;13.50;99.90
39881;DHT22;25554;44.954;10.068;2022-10-29T22:54:32;13.30;99.90
39881;DHT22;25554;44.954;10.068;2022-10-29T22:59:25;13.20;99.90
39881;DHT22;25554;44.954;10.068;2022-10-29T23:04:17;13.40;99.90
39881;DHT22;25554;44.954;10.068;2022-10-29T23:14:05;13.30;99.90
39881;DHT22;25554;44.954;10.068;2022-10-29T23:16:33;13.30;99.90
39881;DHT22;25554;44.954;10.068;2022-10-29T23:19:01;13.30;99.90
39881;DHT22;25554;44.954;10.068;2022-10-29T23:23:55;13.30;99.90
39881;DHT22;25554;44.954;10.068;2022-10-29T23:26:22;13.30;99.90
39881;DHT22;25554;44.954;10.068;2022-10-29T23:31:16;13.30;99.90
39881;DHT22;25554;44.954;10.068;2022-10-29T23:33:44;13.30;99.90
39881;DHT22;25554;44.954;10.068;2022-10-29T23:36:12;13.30;99.90
39881;DHT22;25554;44.954;10.068;2022-10-29T23:45:58;13.20;99.90
39881;DHT22;25554;44.954;10.068;2022-10-29T23:50:51;13.10;99.90
39881;DHT22;25554;44.954;10.068;2022-10-29T23:53:18;13.60;99.90
39881;DHT22;25554;44.954;10.068;2022-10-29T23:58:12;13.00;99.90
